createdAt,value
2018-05-16T00:01:36.942Z,9.00
2018-05-16T00:04:03.962Z,8.90
2018-05-16T00:06:30.272Z,8.90
2018-05-16T00:08:56.587Z,8.80
2018-05-16T00:11:22.957Z,8.80
2018-05-16T00:13:49.264Z,8.80
2018-05-16T00:16:15.573Z,8.70
2018-05-16T00:18:41.883Z,8.70
2018-05-16T00:21:08.921Z,8.80
2018-05-16T00:23:35.953Z,8.80
2018-05-16T00:26:02.246Z,8.80
2018-05-16T00:28:28.561Z,8.80
2018-05-16T00:30:54.845Z,8.80
2018-05-16T00:33:21.125Z,8.80
2018-05-16T00:35:47.421Z,9.00
2018-05-16T00:38:14.445Z,8.80
2018-05-16T00:40:40.744Z,8.80
2018-05-16T00:43:07.232Z,8.80
2018-05-16T00:45:34.255Z,8.90
2018-05-16T00:48:00.557Z,8.80
2018-05-16T00:50:26.842Z,8.90
2018-05-16T00:52:53.878Z,8.90
2018-05-16T00:55:20.149Z,8.90
2018-05-16T00:57:46.473Z,8.90
2018-05-16T01:00:12.745Z,8.90
2018-05-16T01:02:39.029Z,8.80
2018-05-16T01:05:05.324Z,8.80
2018-05-16T01:07:31.609Z,8.90
2018-05-16T01:09:57.905Z,8.80
2018-05-16T01:12:24.925Z,8.90
2018-05-16T01:14:51.213Z,8.90
2018-05-16T01:17:17.543Z,9.00
2018-05-16T01:19:43.825Z,9.00
2018-05-16T01:22:10.860Z,9.00
2018-05-16T01:24:37.886Z,9.10
2018-05-16T01:27:04.177Z,9.10
2018-05-16T01:29:31.465Z,9.10
2018-05-16T01:31:57.749Z,9.20
2018-05-16T01:34:24.809Z,9.20
2018-05-16T01:36:51.076Z,9.20
2018-05-16T01:39:17.352Z,9.30
2018-05-16T01:41:44.395Z,9.40
2018-05-16T01:44:11.416Z,9.30
2018-05-16T01:46:37.710Z,9.30
2018-05-16T01:49:17.219Z,9.30
2018-05-16T01:51:43.498Z,9.30
2018-05-16T01:54:09.830Z,9.40
2018-05-16T01:56:36.140Z,9.50
2018-05-16T01:59:02.433Z,9.50
2018-05-16T02:01:29.465Z,9.50
2018-05-16T02:03:55.773Z,9.40
2018-05-16T02:06:22.072Z,9.50
2018-05-16T02:08:48.385Z,9.50
2018-05-16T02:11:14.684Z,9.60
2018-05-16T02:13:40.969Z,9.60
2018-05-16T02:16:07.248Z,9.70
2018-05-16T02:18:35.281Z,9.60
2018-05-16T02:21:01.560Z,9.60
2018-05-16T02:23:28.609Z,9.70
2018-05-16T02:25:55.649Z,9.70
2018-05-16T02:28:22.740Z,9.70
2018-05-16T02:30:49.037Z,9.70
2018-05-16T02:33:15.978Z,9.70
2018-05-16T02:35:43.012Z,9.70
2018-05-16T02:38:10.065Z,9.80
2018-05-16T02:40:37.121Z,9.70
2018-05-16T02:43:04.221Z,9.70
2018-05-16T02:45:30.553Z,9.70
2018-05-16T02:47:56.825Z,9.80
2018-05-16T02:50:24.873Z,9.70
2018-05-16T02:52:51.894Z,9.70
2018-05-16T02:55:18.209Z,9.70
2018-05-16T02:57:44.489Z,9.70
2018-05-16T03:00:10.794Z,9.70
2018-05-16T03:02:37.077Z,9.70
2018-05-16T03:05:03.425Z,9.70
2018-05-16T03:07:29.753Z,9.70
2018-05-16T03:09:56.055Z,9.80
2018-05-16T03:12:23.085Z,9.80
2018-05-16T03:14:49.376Z,9.70
2018-05-16T03:17:15.719Z,9.70
2018-05-16T03:19:42.018Z,9.70
2018-05-16T03:22:08.313Z,9.60
2018-05-16T03:24:35.370Z,9.50
2018-05-16T03:27:02.386Z,9.50
2018-05-16T03:29:28.693Z,9.50
2018-05-16T03:31:54.989Z,9.60
2018-05-16T03:34:21.312Z,9.80
2018-05-16T03:36:48.334Z,9.90
2018-05-16T03:39:15.637Z,9.90
2018-05-16T03:41:41.945Z,9.90
2018-05-16T03:44:08.982Z,9.90
2018-05-16T03:46:36.004Z,9.90
2018-05-16T03:49:02.314Z,10.00
2018-05-16T03:51:28.593Z,10.00
2018-05-16T03:53:55.637Z,10.10
2018-05-16T03:56:22.676Z,10.00
2018-05-16T03:59:01.981Z,10.00
2018-05-16T04:01:40.517Z,10.00
2018-05-16T04:04:15.929Z,10.00
2018-05-16T04:06:42.235Z,10.00
2018-05-16T04:09:09.291Z,10.00
2018-05-16T04:11:37.245Z,10.00
2018-05-16T04:14:04.289Z,9.80
2018-05-16T04:16:30.577Z,10.10
2018-05-16T04:18:56.889Z,10.10
2018-05-16T04:21:23.226Z,10.10
2018-05-16T04:23:49.545Z,10.10
2018-05-16T04:26:15.993Z,10.10
2018-05-16T04:28:42.363Z,10.10
2018-05-16T04:31:08.579Z,10.10
2018-05-16T04:33:35.633Z,10.10
2018-05-16T04:36:02.673Z,10.20
2018-05-16T04:38:29.712Z,10.10
2018-05-16T04:40:56.002Z,10.10
2018-05-16T04:43:23.374Z,10.20
2018-05-16T04:45:49.664Z,10.20
2018-05-16T04:48:15.973Z,10.10
2018-05-16T04:50:43.010Z,10.10
2018-05-16T04:53:09.306Z,10.10
2018-05-16T04:55:35.596Z,10.10
2018-05-16T04:58:01.893Z,10.10
2018-05-16T05:00:28.176Z,10.20
2018-05-16T05:02:54.481Z,10.30
2018-05-16T05:05:21.516Z,10.40
2018-05-16T05:07:48.569Z,10.40
2018-05-16T05:10:15.594Z,10.20
2018-05-16T05:12:41.900Z,10.20
2018-05-16T05:15:09.213Z,10.20
2018-05-16T05:17:35.522Z,10.20
2018-05-16T05:20:02.604Z,10.30
2018-05-16T05:22:28.889Z,10.20
2018-05-16T05:24:55.170Z,10.30
2018-05-16T05:27:21.481Z,10.30
2018-05-16T05:29:47.757Z,10.40
2018-05-16T05:32:14.076Z,10.30
2018-05-16T05:34:40.366Z,10.30
2018-05-16T05:37:06.669Z,10.20
2018-05-16T05:39:32.962Z,10.30
2018-05-16T05:41:59.274Z,10.30
2018-05-16T05:44:25.596Z,10.20
2018-05-16T05:46:52.644Z,10.10
2018-05-16T05:49:18.929Z,10.10
2018-05-16T05:51:45.232Z,10.20
2018-05-16T05:54:11.508Z,10.20
2018-05-16T05:56:38.562Z,10.30
2018-05-16T05:59:06.555Z,10.20
2018-05-16T06:01:32.857Z,10.20
2018-05-16T06:03:59.885Z,10.20
2018-05-16T06:06:26.204Z,10.10
2018-05-16T06:08:52.485Z,10.10
2018-05-16T06:11:18.792Z,10.00
2018-05-16T06:13:45.074Z,10.00
2018-05-16T06:16:11.377Z,10.10
2018-05-16T06:18:37.671Z,10.10
2018-05-16T06:21:03.985Z,10.00
2018-05-16T06:23:30.273Z,10.10
2018-05-16T06:25:56.600Z,10.10
2018-05-16T06:28:23.076Z,10.00
2018-05-16T06:30:49.429Z,10.00
2018-05-16T06:33:16.473Z,10.10
2018-05-16T06:35:42.787Z,10.10
2018-05-16T06:38:10.096Z,10.00
2018-05-16T06:40:36.424Z,10.10
2018-05-16T06:43:02.714Z,10.10
2018-05-16T06:45:29.029Z,10.10
2018-05-16T06:47:55.345Z,10.20
2018-05-16T06:50:21.638Z,10.30
2018-05-16T06:52:47.949Z,10.40
2018-05-16T06:55:14.229Z,10.50
2018-05-16T06:57:41.560Z,10.50
2018-05-16T07:00:07.860Z,10.50
2018-05-16T07:02:34.169Z,10.50
2018-05-16T07:05:00.475Z,10.60
2018-05-16T07:07:27.801Z,10.70
2018-05-16T07:09:54.084Z,10.80
2018-05-16T07:12:20.374Z,11.00
2018-05-16T07:14:46.658Z,10.90
2018-05-16T07:17:14.441Z,10.80
2018-05-16T07:19:41.509Z,10.80
2018-05-16T07:22:09.427Z,10.80
2018-05-16T07:24:35.714Z,10.80
2018-05-16T07:27:02.129Z,11.00
2018-05-16T07:29:29.145Z,11.30
2018-05-16T07:31:55.444Z,11.30
2018-05-16T07:34:21.717Z,11.40
2018-05-16T07:36:48.063Z,11.50
2018-05-16T07:39:14.318Z,11.50
2018-05-16T07:41:40.645Z,11.50
2018-05-16T07:44:06.925Z,11.70
2018-05-16T07:46:33.241Z,11.60
2018-05-16T07:48:59.516Z,11.60
2018-05-16T07:51:26.569Z,11.60
2018-05-16T07:53:52.854Z,11.60
2018-05-16T07:56:20.173Z,11.40
2018-05-16T07:58:46.454Z,11.30
2018-05-16T08:01:12.781Z,11.30
2018-05-16T08:03:40.617Z,11.20
2018-05-16T08:06:06.913Z,11.20
2018-05-16T08:08:34.212Z,11.20
2018-05-16T08:11:00.501Z,11.10
2018-05-16T08:13:26.850Z,10.90
2018-05-16T08:15:53.181Z,11.00
2018-05-16T08:18:19.543Z,11.00
2018-05-16T08:20:45.857Z,11.10
2018-05-16T08:23:12.133Z,11.00
2018-05-16T08:25:39.169Z,11.10
2018-05-16T08:28:05.458Z,11.10
2018-05-16T08:30:31.807Z,11.30
2018-05-16T08:32:58.082Z,11.30
2018-05-16T08:35:24.541Z,11.30
2018-05-16T08:37:50.847Z,11.30
2018-05-16T08:40:17.152Z,11.40
2018-05-16T08:42:43.461Z,11.50
2018-05-16T08:45:09.762Z,11.50
2018-05-16T08:47:36.078Z,11.50
2018-05-16T08:50:02.405Z,11.70
2018-05-16T08:52:28.701Z,11.70
2018-05-16T08:54:55.001Z,11.70
2018-05-16T08:57:21.281Z,11.80
2018-05-16T08:59:48.310Z,12.20
2018-05-16T09:02:14.582Z,12.20
2018-05-16T09:04:40.873Z,12.10
2018-05-16T09:07:07.890Z,12.10
2018-05-16T09:09:34.200Z,12.10
2018-05-16T09:12:00.481Z,12.30
2018-05-16T09:14:27.485Z,12.20
2018-05-16T09:16:53.776Z,12.20
2018-05-16T09:19:20.052Z,12.10
2018-05-16T09:21:47.363Z,12.10
2018-05-16T09:24:13.654Z,12.20
2018-05-16T09:26:39.942Z,12.30
2018-05-16T09:29:06.225Z,12.30
2018-05-16T09:31:33.285Z,12.70
2018-05-16T09:34:00.313Z,12.50
2018-05-16T09:36:26.645Z,12.40
2018-05-16T09:38:53.683Z,11.90
2018-05-16T09:41:19.984Z,11.80
2018-05-16T09:43:46.270Z,11.70
2018-05-16T09:46:13.322Z,11.40
2018-05-16T09:48:39.608Z,11.30
2018-05-16T09:51:05.910Z,11.20
2018-05-16T09:53:32.197Z,11.40
2018-05-16T09:55:59.228Z,11.60
2018-05-16T09:58:25.529Z,11.50
2018-05-16T10:00:51.819Z,11.60
2018-05-16T10:03:18.855Z,11.50
2018-05-16T10:05:45.877Z,11.50
2018-05-16T10:08:12.172Z,11.50
2018-05-16T10:10:38.460Z,11.50
2018-05-16T10:13:05.505Z,11.40
2018-05-16T10:15:32.531Z,11.40
2018-05-16T10:17:59.542Z,11.40
2018-05-16T10:20:25.849Z,11.30
2018-05-16T10:22:52.165Z,11.30
2018-05-16T10:25:19.288Z,11.40
2018-05-16T10:27:45.582Z,11.40
2018-05-16T10:30:11.881Z,11.30
2018-05-16T10:32:38.190Z,11.30
2018-05-16T10:35:05.220Z,11.40
2018-05-16T10:37:31.494Z,11.40
2018-05-16T10:39:57.800Z,11.40
2018-05-16T10:42:24.837Z,11.60
2018-05-16T10:44:51.137Z,11.50
2018-05-16T10:47:17.437Z,11.60
2018-05-16T10:49:43.708Z,11.80
2018-05-16T10:52:10.085Z,12.10
2018-05-16T10:54:36.310Z,12.20
2018-05-16T10:57:03.390Z,12.00
2018-05-16T10:59:29.661Z,11.90
2018-05-16T11:01:55.943Z,12.00
2018-05-16T11:04:22.245Z,11.90
2018-05-16T11:06:51.308Z,11.60
2018-05-16T11:09:17.588Z,11.60
2018-05-16T11:11:43.924Z,11.70
2018-05-16T11:14:10.206Z,11.90
2018-05-16T11:16:36.524Z,12.10
2018-05-16T11:19:02.797Z,12.10
2018-05-16T11:21:29.913Z,11.80
2018-05-16T11:23:56.200Z,11.80
2018-05-16T11:26:22.496Z,11.90
2018-05-16T11:28:49.519Z,12.10
2018-05-16T11:31:15.816Z,12.10
2018-05-16T11:33:42.113Z,12.10
2018-05-16T11:36:09.449Z,11.90
2018-05-16T11:38:36.798Z,11.80
2018-05-16T11:41:03.118Z,11.70
2018-05-16T11:43:29.426Z,11.80
2018-05-16T11:45:55.785Z,11.60
2018-05-16T11:48:22.076Z,11.60
2018-05-16T11:50:48.408Z,11.40
2018-05-16T11:53:15.200Z,11.50
2018-05-16T11:55:42.224Z,11.50
2018-05-16T11:58:08.528Z,11.50
2018-05-16T12:00:34.833Z,11.50
2018-05-16T12:03:01.113Z,11.50
2018-05-16T12:05:27.411Z,11.40
2018-05-16T12:07:53.718Z,11.50
2018-05-16T12:10:20.081Z,11.60
2018-05-16T12:12:46.392Z,11.60
2018-05-16T12:15:12.668Z,11.40
2018-05-16T12:17:38.969Z,11.30
2018-05-16T12:20:05.258Z,11.30
2018-05-16T12:22:32.301Z,11.40
2018-05-16T12:24:59.323Z,11.30
2018-05-16T12:27:25.657Z,11.20
2018-05-16T12:29:51.990Z,11.30
2018-05-16T12:32:18.325Z,11.20
2018-05-16T12:34:44.593Z,11.30
2018-05-16T12:37:10.947Z,11.20
2018-05-16T12:39:37.257Z,11.40
2018-05-16T12:42:03.581Z,11.30
2018-05-16T12:44:29.849Z,11.40
2018-05-16T12:46:56.175Z,11.60
2018-05-16T12:49:22.501Z,11.70
2018-05-16T12:51:49.101Z,11.60
2018-05-16T12:54:16.130Z,11.70
2018-05-16T12:56:43.185Z,11.40
2018-05-16T12:59:10.214Z,11.30
2018-05-16T13:01:37.693Z,11.20
2018-05-16T13:04:03.825Z,11.20
2018-05-16T13:06:30.877Z,11.30
2018-05-16T13:08:57.258Z,11.20
2018-05-16T13:11:24.321Z,11.30
2018-05-16T13:13:50.613Z,11.30
2018-05-16T13:16:17.941Z,11.30
2018-05-16T13:18:44.234Z,11.30
2018-05-16T13:21:10.530Z,11.30
2018-05-16T13:23:36.822Z,11.30
2018-05-16T13:26:03.893Z,11.30
2018-05-16T13:28:30.177Z,11.30
2018-05-16T13:30:57.238Z,11.40
2018-05-16T13:33:24.281Z,11.40
2018-05-16T13:35:50.566Z,11.40
2018-05-16T13:38:16.841Z,11.40
2018-05-16T13:40:43.876Z,11.60
2018-05-16T13:43:10.206Z,11.60
2018-05-16T13:45:36.482Z,11.80
2018-05-16T13:48:02.780Z,11.90
2018-05-16T13:50:29.814Z,12.10
2018-05-16T13:52:56.101Z,12.10
2018-05-16T13:55:22.411Z,12.30
2018-05-16T13:57:48.700Z,12.30
2018-05-16T14:00:15.082Z,12.30
2018-05-16T14:02:41.320Z,12.40
2018-05-16T14:05:07.637Z,12.40
2018-05-16T14:07:33.915Z,12.40
2018-05-16T14:10:00.221Z,12.30
2018-05-16T14:12:26.517Z,12.20
2018-05-16T14:14:52.816Z,12.30
2018-05-16T14:17:19.830Z,12.70
2018-05-16T14:19:46.121Z,12.70
2018-05-16T14:22:12.496Z,12.90
2018-05-16T14:24:39.760Z,13.00
2018-05-16T14:27:06.033Z,12.80
2018-05-16T14:29:32.393Z,12.90
2018-05-16T14:31:58.681Z,12.90
2018-05-16T14:34:25.022Z,13.10
2018-05-16T14:36:52.058Z,13.20
2018-05-16T14:39:19.113Z,13.20
2018-05-16T14:41:46.157Z,13.10
2018-05-16T14:44:13.212Z,13.10
2018-05-16T14:46:40.241Z,12.90
2018-05-16T14:49:06.540Z,13.10
2018-05-16T14:51:32.888Z,12.80
2018-05-16T14:53:59.197Z,12.70
2018-05-16T14:56:25.549Z,12.60
2018-05-16T14:58:53.280Z,12.60
2018-05-16T15:01:19.567Z,12.50
2018-05-16T15:03:46.620Z,12.20
2018-05-16T15:06:13.657Z,12.10
2018-05-16T15:08:40.697Z,12.00
2018-05-16T15:11:07.741Z,12.00
2018-05-16T15:13:34.097Z,12.00
2018-05-16T15:16:01.129Z,12.30
2018-05-16T15:18:28.169Z,12.40
2018-05-16T15:20:55.188Z,12.40
2018-05-16T15:23:21.508Z,12.40
2018-05-16T15:25:47.785Z,12.40
2018-05-16T15:28:14.833Z,12.30
2018-05-16T15:30:41.854Z,12.40
2018-05-16T15:33:08.202Z,12.30
2018-05-16T15:35:34.454Z,12.60
2018-05-16T15:38:00.737Z,12.80
2018-05-16T15:40:27.032Z,13.20
2018-05-16T15:42:53.317Z,13.20
2018-05-16T15:45:19.638Z,13.10
2018-05-16T15:47:45.925Z,13.10
2018-05-16T15:50:12.233Z,13.10
2018-05-16T15:52:38.529Z,13.20
2018-05-16T15:55:04.833Z,13.20
2018-05-16T15:57:31.182Z,12.90
2018-05-16T15:59:57.531Z,12.60
2018-05-16T16:02:25.714Z,12.50
2018-05-16T16:04:52.740Z,12.40
2018-05-16T16:07:19.055Z,12.30
2018-05-16T16:09:45.349Z,12.30
2018-05-16T16:12:11.669Z,12.30
2018-05-16T16:14:37.948Z,12.10
2018-05-16T16:17:04.292Z,12.10
2018-05-16T16:19:31.329Z,12.10
2018-05-16T16:21:57.651Z,12.10
2018-05-16T16:24:23.953Z,12.10
2018-05-16T16:26:50.293Z,12.20
2018-05-16T16:29:16.795Z,12.00
2018-05-16T16:31:42.988Z,12.00
2018-05-16T16:34:09.286Z,11.90
2018-05-16T16:36:35.586Z,11.80
2018-05-16T16:39:02.650Z,12.00
2018-05-16T16:41:28.961Z,12.00
2018-05-16T16:43:55.984Z,12.00
2018-05-16T16:46:22.308Z,12.00
2018-05-16T16:48:48.588Z,12.10
2018-05-16T16:51:14.881Z,12.20
2018-05-16T16:53:41.169Z,12.20
2018-05-16T16:56:07.448Z,12.20
2018-05-16T16:58:34.513Z,12.00
2018-05-16T17:01:00.788Z,11.90
2018-05-16T17:03:27.071Z,12.00
2018-05-16T17:05:53.380Z,12.10
2018-05-16T17:08:20.396Z,12.00
2018-05-16T17:10:46.693Z,12.00
2018-05-16T17:13:12.990Z,12.20
2018-05-16T17:15:40.033Z,12.00
2018-05-16T17:18:07.386Z,11.90
2018-05-16T17:20:33.713Z,11.90
2018-05-16T17:23:01.028Z,11.70
2018-05-16T17:25:27.329Z,11.70
2018-05-16T17:27:53.641Z,11.70
2018-05-16T17:30:20.729Z,11.80
2018-05-16T17:32:47.005Z,11.80
2018-05-16T17:35:13.313Z,11.80
2018-05-16T17:37:39.624Z,11.80
2018-05-16T17:40:06.042Z,11.90
2018-05-16T17:42:32.382Z,11.70
2018-05-16T17:44:58.782Z,11.60
2018-05-16T17:47:25.899Z,11.40
2018-05-16T17:49:52.181Z,11.30
2018-05-16T17:52:18.476Z,11.30
2018-05-16T17:54:55.732Z,11.20
2018-05-16T17:57:22.797Z,10.90
2018-05-16T17:59:52.120Z,10.80
2018-05-16T18:02:19.170Z,10.60
2018-05-16T18:04:46.417Z,10.60
2018-05-16T18:07:13.472Z,10.50
2018-05-16T18:09:40.525Z,10.60
2018-05-16T18:12:07.555Z,10.60
2018-05-16T18:17:32.374Z,10.60
2018-05-16T18:19:58.769Z,10.60
2018-05-16T18:22:27.872Z,10.60
2018-05-16T18:24:54.921Z,10.60
2018-05-16T18:27:21.204Z,10.50
2018-05-16T18:29:47.517Z,10.50
2018-05-16T18:32:14.547Z,10.30
2018-05-16T18:34:41.608Z,10.30
2018-05-16T18:37:14.832Z,10.20
2018-05-16T18:42:21.454Z,10.20
2018-05-16T18:47:21.075Z,10.00
2018-05-16T18:49:47.369Z,11.40
2018-05-16T18:52:13.670Z,10.00
2018-05-16T18:54:39.994Z,9.90
2018-05-16T18:57:06.302Z,10.00
2018-05-16T18:59:32.634Z,10.00
2018-05-16T19:02:05.743Z,10.10
2018-05-16T19:04:32.305Z,10.00
2018-05-16T19:06:58.617Z,10.20
2018-05-16T19:09:24.922Z,10.20
2018-05-16T19:11:51.226Z,10.30
2018-05-16T19:14:20.437Z,10.40
2018-05-16T19:16:46.729Z,10.40
2018-05-16T19:19:13.785Z,10.30
2018-05-16T19:21:40.809Z,10.30
2018-05-16T19:24:09.313Z,10.30
2018-05-16T19:26:36.636Z,10.30
2018-05-16T19:29:02.965Z,10.30
2018-05-16T19:31:29.989Z,10.30
2018-05-16T19:33:56.310Z,10.30
2018-05-16T19:36:22.606Z,10.30
2018-05-16T19:38:48.909Z,10.30
2018-05-16T19:41:15.206Z,10.40
2018-05-16T19:43:44.343Z,10.40
2018-05-16T19:46:10.641Z,10.40
2018-05-16T19:48:37.702Z,10.40
2018-05-16T19:51:04.720Z,10.40
2018-05-16T19:53:31.021Z,10.40
2018-05-16T19:55:57.320Z,10.50
2018-05-16T19:58:24.383Z,9.80
2018-05-16T20:00:50.669Z,10.60
2018-05-16T20:03:17.061Z,10.70
2018-05-16T20:05:45.401Z,10.70
2018-05-16T20:08:14.720Z,10.60
2018-05-16T20:10:41.049Z,10.60
2018-05-16T20:13:07.353Z,10.70
2018-05-16T20:15:33.634Z,10.60
2018-05-16T20:18:00.952Z,10.60
2018-05-16T20:20:27.262Z,10.60
2018-05-16T20:22:53.544Z,10.70
2018-05-16T20:25:20.589Z,10.70
2018-05-16T20:27:46.899Z,10.60
2018-05-16T20:30:13.229Z,10.60
2018-05-16T20:32:39.540Z,10.50
2018-05-16T20:35:08.469Z,10.60
2018-05-16T20:37:34.787Z,10.60
2018-05-16T20:40:01.185Z,10.60
2018-05-16T20:42:27.397Z,10.60
2018-05-16T20:44:54.460Z,10.50
2018-05-16T20:52:53.133Z,10.40
2018-05-16T20:55:19.436Z,10.50
2018-05-16T20:57:45.729Z,10.50
2018-05-16T21:00:12.019Z,10.40
2018-05-16T21:02:38.333Z,10.40
2018-05-16T21:05:04.645Z,10.40
2018-05-16T21:07:30.957Z,10.40
2018-05-16T21:10:00.777Z,10.50
2018-05-16T21:12:29.190Z,10.40
2018-05-16T21:14:57.537Z,10.40
2018-05-16T21:17:24.577Z,10.40
2018-05-16T21:22:24.044Z,10.30
2018-05-16T21:24:52.870Z,10.50
2018-05-16T21:27:19.183Z,10.50
2018-05-16T21:29:46.506Z,10.60
2018-05-16T21:32:20.712Z,10.40
2018-05-16T21:34:49.177Z,10.30
2018-05-16T21:39:51.661Z,10.50
2018-05-16T21:42:17.952Z,10.50
2018-05-16T21:44:44.845Z,10.50
2018-05-16T21:49:45.523Z,10.50
2018-05-16T21:52:11.833Z,10.50
2018-05-16T21:54:38.168Z,10.60
2018-05-16T21:57:05.696Z,10.60
2018-05-16T21:59:33.037Z,10.50
2018-05-16T22:01:59.324Z,10.50
2018-05-16T22:04:30.541Z,10.50
2018-05-16T22:06:56.829Z,10.50
2018-05-16T22:09:23.128Z,10.50
2018-05-16T22:11:49.425Z,10.50
2018-05-16T22:14:15.728Z,10.50
2018-05-16T22:16:42.753Z,10.50
2018-05-16T22:19:09.071Z,10.50
2018-05-16T22:21:36.113Z,10.50
2018-05-16T22:24:03.220Z,10.50
2018-05-16T22:26:29.539Z,10.50
2018-05-16T22:28:56.562Z,10.50
2018-05-16T22:31:29.109Z,10.50
2018-05-16T22:34:01.468Z,10.50
2018-05-16T22:36:33.724Z,10.60
2018-05-16T22:39:06.126Z,10.50
2018-05-16T22:41:38.469Z,10.40
2018-05-16T22:44:07.737Z,10.40
2018-05-16T22:46:34.058Z,10.40
2018-05-16T22:49:00.361Z,10.30
2018-05-16T22:51:26.718Z,10.30
2018-05-16T22:53:53.749Z,10.30
2018-05-16T22:56:20.068Z,10.30
2018-05-16T22:58:46.348Z,10.30
2018-05-16T23:01:13.409Z,10.20
2018-05-16T23:03:40.436Z,10.20
2018-05-16T23:06:07.497Z,10.20
2018-05-16T23:08:34.526Z,10.20
2018-05-16T23:11:00.825Z,10.20
2018-05-16T23:13:27.125Z,10.20
2018-05-16T23:15:53.425Z,10.20
2018-05-16T23:18:20.457Z,10.00
2018-05-16T23:20:46.781Z,10.00
2018-05-16T23:23:13.065Z,10.00
2018-05-16T23:25:39.385Z,10.00
2018-05-16T23:28:05.674Z,9.90
2018-05-16T23:30:31.974Z,10.00
2018-05-16T23:32:58.252Z,9.90
2018-05-16T23:35:25.346Z,10.00
2018-05-16T23:37:51.633Z,10.00
2018-05-16T23:40:18.696Z,10.00
2018-05-16T23:42:44.981Z,10.00
2018-05-16T23:45:11.281Z,10.00
2018-05-16T23:47:37.585Z,10.00
2018-05-16T23:50:04.524Z,10.00
2018-05-16T23:52:31.570Z,10.10
2018-05-16T23:54:58.593Z,10.10
2018-05-16T23:57:24.888Z,10.10
2018-05-16T23:59:51.163Z,10.10
